Aviation Digital Data Service (ADDS)

Output produced by TAFs form (0837 UTC 22 February 2017)
found at http://aviationweather.gov/adds/tafs/
 
KMTJ 220542Z 2206/2306 22020G28KT P6SM SCT250 WS020/23040KT 
     FM221500 20015G25KT P6SM SCT100 SCT250 
     FM221900 23015G26KT P6SM SCT150 
     FM230200 20010G18KT P6SM SCT200